Rochester, MN (55905)

10:20 PM CST on December 28, 2014 (GMT -0600)
Honeckland, Elton Hills | Change Station
CLOSE
Current Station
Personal Weather Station
Location: Rochester, MN
Elevation: 1037 ft
Nearby Weather Stations

Elev 1037 ft 44.05 °N, 92.48 °W | Updated 10 minutes ago

Clear
Clear
10.4 °F
Feels Like 10 °F
N
2.2
Wind Variable Wind from NNW

Today
High -- | Low -- °F
--% Chance of Precip.
Yesterday
High -- | Low -- °F
Precip. -- in
7:44 AM 4:39 PM
First Quarter, 54% visible
Pressure 30.27 in
Visibility 7.0 miles
Clouds Clear
Windchill 10 °F
Dew Point 10 °F
Humidity 99%
Rainfall 0.00 in
Snow Depth Not available.
UV 0 out of 12
Pollen .10 out of 12
Air Quality Not available.
Flu Activity Not available.
METAR K9MN 290413Z AUTO 02004KT 7SM CLR M10/M11 A3027 RMK AO1 T10961112

More Conditions Fewer Conditions

Pressure 30.27 in
Visibility 7.0 miles
Clouds Clear
Windchill 10 °F
Dew Point 10 °F
Humidity 99%
Rainfall 0.00 in
Snow Depth Not available.
UV 0 out of 12
Pollen .10 out of 12
Air Quality Not available.
Flu Activity Not available.
METAR K9MN 290413Z AUTO 02004KT 7SM CLR M10/M11 A3027 RMK AO1 T10961112

More Conditions Fewer Conditions

10-Day Weather Forecast

Almanac

Astronomy

Dec. 28, 2014 Rise Set
Actual Time
Civil Twilight
Nautical Twilight
Astronomical Twilight
Moon
Length of Visible Light
Length of Day
Tomorrow will be .
, % of the Moon is Illuminated

Today's Extremes

State Highs State Lows

Community

WunderPhotos

Upload Photos

1,781,534 photos uploaded!

WunderBlogs® & News

Nearby

Air Quality

  Air Quality AQ Index Pollutant
Not available.

Snow Depth

Station Depth Elevation

Earthquake Activity

City Distance Mag. Time & Date
Minimum magnitude displayed is 2.5.

Coastal Water Temperatures

Place Temperature

Nearby Weather Stations